This is the latest recevied weather packets stored in our database for station/object FW1079. If no packets are shown the sender has not sent any weather packets the latest 10 day(s).
| Time | Temp. | Humidity | Pressure | Rain* | Wind** | Luminosity | Snow |
|---|---|---|---|---|---|---|---|
| 1777484953 | 15° C | 83% | 1015 hPa | 0 mm | - | - | - |
| 1777483152 | 16.67° C | 77% | 1014 hPa | 0 mm | - | - | - |
| 1777482855 | 16.67° C | 75% | 1015 hPa | 0 mm | - | - | - |
| 1777480752 | 18.33° C | 74% | 1014 hPa | 0 mm | - | - | - |
| 1777478352 | 20° C | 68% | 1015 hPa | 0 mm | - | - | - |
| 1777477752 | 20° C | 66% | 1015 hPa | 0 mm | - | - | - |
| 1777476252 | 21.67° C | 57% | 1015 hPa | 0 mm | - | - | - |
| 1777475355 | 22.22° C | 54% | 1014 hPa | 0 mm | - | - | - |
| 1777474752 | 22.22° C | 54% | 1014 hPa | 0 mm | - | - | - |
| 1777473552 | 22.78° C | 56% | 1014 hPa | 0 mm | - | - | - |
| 1777469655 | 23.33° C | 59% | 1014 hPa | 0 mm | - | - | - |
| 1777467252 | 23.33° C | 59% | 1015 hPa | 0 mm | - | - | - |
| 1777463952 | 22.78° C | 64% | 1015 hPa | 0 mm | - | - | - |
| 1777463351 | 22.78° C | 64% | 1015 hPa | 0 mm | - | - | - |
| 1777460952 | 22.78° C | 62% | 1015 hPa | 0 mm | - | - | - |
| 1777460651 | 22.78° C | 63% | 1015 hPa | 0 mm | - | - | - |
| 1777457651 | 22.78° C | 60% | 1016 hPa | 0 mm | - | - | - |
| 1777454051 | 22.78° C | 52% | 1016 hPa | 0 mm | - | - | - |
| 1777451051 | 21.67° C | 56% | 1015 hPa | 0 mm | - | - | - |
| 1777450751 | 21.67° C | 57% | 1015 hPa | 0 mm | - | - | - |
| 1777450454 | 21.11° C | 60% | 1016 hPa | 0 mm | - | - | - |
| 1777448951 | 20° C | 62% | 1016 hPa | 0 mm | - | - | - |
| 1777448352 | 19.44° C | 62% | 1016 hPa | 0 mm | - | - | - |
| 1777447151 | 18.33° C | 63% | 1016 hPa | 0 mm | - | - | - |
| 1777445651 | 16.67° C | 70% | 1016 hPa | 0 mm | - | - | - |
* Rain latest hour (hover to see other rain measurements)
** Current wind speed in m/s (hover to see current wind gust speed)